Time;durP1;ratioP1;P1;durP2;ratioP2;P2;SDS_P1;SDS_P2;PMS_P1;PMS_P2;Temp;Humidity;BMP_temperature;BMP_pressure;BME280_temperature;BME280_humidity;BME280_pressure;Samples;Min_cycle;Max_cycle;Signal;HPM_P1;HPM_P2
2022/04/30 00:01:04;;;;;;;10.50;9.40;;;8.30;99.90;;;;;;5078627;28;20500;-58
2022/04/30 00:03:38;;;;;;;10.60;9.10;;;8.30;99.90;;;;;;5078855;28;20544;-57
2022/04/30 00:06:11;;;;;;;14.77;10.00;;;8.20;99.90;;;;;;5076464;28;20847;-58
2022/04/30 00:08:39;;;;;;;12.80;10.10;;;8.10;99.90;;;;;;5078093;28;20461;-57
2022/04/30 00:11:07;;;;;;;11.20;9.60;;;8.10;99.90;;;;;;5078666;28;20525;-58
2022/04/30 00:13:38;;;;;;;12.20;10.40;;;8.10;99.90;;;;;;5077907;28;20494;-58
2022/04/30 00:16:15;;;;;;;13.60;10.90;;;8.00;99.90;;;;;;5077688;28;20461;-58
2022/04/30 00:18:47;;;;;;;11.10;10.00;;;7.90;99.90;;;;;;5078159;28;20504;-57
2022/04/30 00:21:15;;;;;;;11.97;10.63;;;7.80;99.90;;;;;;5066039;28;20464;-58
2022/04/30 00:23:47;;;;;;;12.50;10.57;;;7.80;99.90;;;;;;5077480;28;20500;-58
2022/04/30 00:26:14;;;;;;;15.20;11.00;;;7.80;99.90;;;;;;5076556;28;20468;-57
2022/04/30 00:28:44;;;;;;;12.10;10.60;;;7.70;99.90;;;;;;5076491;28;20489;-58
2022/04/30 00:31:11;;;;;;;12.80;10.27;;;7.70;99.90;;;;;;5076951;28;20454;-58
2022/04/30 00:33:47;;;;;;;12.87;10.60;;;7.60;99.90;;;;;;5078117;28;20532;-57
2022/04/30 00:36:22;;;;;;;11.43;10.00;;;7.60;99.90;;;;;;5078284;28;20465;-58
2022/04/30 00:38:49;;;;;;;15.50;11.50;;;7.60;99.90;;;;;;5075410;28;20469;-58
2022/04/30 00:41:16;;;;;;;17.00;10.53;;;7.60;99.90;;;;;;5077434;28;20843;-58
2022/04/30 00:43:51;;;;;;;12.10;10.87;;;7.50;99.90;;;;;;5077972;28;20885;-58
2022/04/30 00:46:29;;;;;;;13.77;10.77;;;7.50;1.00;;;;;;5077344;28;20469;-57
2022/04/30 00:48:57;;;;;;;13.90;11.00;;;7.50;1.00;;;;;;5077778;28;20493;-57
2022/04/30 00:51:31;;;;;;;13.87;10.97;;;7.50;1.00;;;;;;5077390;28;20465;-58
2022/04/30 00:54:00;;;;;;;13.03;11.70;;;7.60;1.00;;;;;;5077372;28;20453;-58
2022/04/30 00:56:30;;;;;;;15.37;10.10;;;7.50;1.00;;;;;;5076723;28;20461;-57
2022/04/30 00:59:05;;;;;;;18.93;11.77;;;7.40;1.00;;;;;;5076738;28;20500;-57
2022/04/30 01:01:33;;;;;;;10.60;9.50;;;7.40;1.00;;;;;;5076928;28;20489;-58
2022/04/30 01:04:07;;;;;;;13.83;10.67;;;7.30;1.00;;;;;;5077963;28;20461;-57
2022/04/30 01:06:48;;;;;;;14.77;10.57;;;7.30;1.00;;;;;;5077659;28;20464;-57
2022/04/30 01:09:25;;;;;;;16.13;11.00;;;7.20;1.00;;;;;;5077286;28;20462;-58
2022/04/30 01:11:56;;;;;;;15.17;10.67;;;7.20;1.00;;;;;;5076616;28;20487;-58
2022/04/30 01:14:29;;;;;;;14.93;10.63;;;7.20;1.00;;;;;;5076896;28;20558;-58
2022/04/30 01:16:59;;;;;;;14.00;9.83;;;7.20;1.00;;;;;;5077167;28;20468;-57
2022/04/30 01:19:36;;;;;;;12.40;9.83;;;7.20;1.00;;;;;;5075786;28;20457;-58
2022/04/30 01:22:11;;;;;;;13.20;10.50;;;7.20;1.00;;;;;;5075554;28;20510;-58
2022/04/30 01:24:45;;;;;;;11.73;9.60;;;7.20;1.00;;;;;;5063633;28;20488;-57
2022/04/30 01:27:12;;;;;;;11.70;9.53;;;7.10;1.00;;;;;;5076475;28;20473;-58
2022/04/30 01:29:52;;;;;;;12.87;10.27;;;7.10;1.00;;;;;;5076082;28;20496;-58
2022/04/30 01:38:12;;;;;;;15.60;10.20;;;7.00;1.00;;;;;;5056584;28;20453;-58
2022/04/30 01:40:44;;;;;;;11.40;9.50;;;7.00;1.00;;;;;;5074599;28;20806;-58
2022/04/30 01:43:20;;;;;;;12.70;10.23;;;6.90;1.00;;;;;;5076670;28;20458;-58
2022/04/30 01:45:48;;;;;;;12.10;9.13;;;6.90;1.00;;;;;;5077137;28;20465;-58
2022/04/30 01:48:22;;;;;;;11.93;9.33;;;6.80;1.00;;;;;;5076933;28;20539;-58
2022/04/30 01:51:00;;;;;;;12.23;9.00;;;6.70;1.00;;;;;;5076179;28;20507;-58
2022/04/30 01:53:30;;;;;;;13.83;9.77;;;6.70;1.00;;;;;;5076895;28;20496;-58
2022/04/30 01:55:59;;;;;;;15.57;10.87;;;6.70;1.00;;;;;;5076558;28;20458;-57
2022/04/30 01:58:30;;;;;;;11.40;10.07;;;6.70;1.00;;;;;;5076731;28;20462;-57
2022/04/30 02:00:57;;;;;;;11.83;9.80;;;6.60;1.00;;;;;;5075840;28;20469;-59
2022/04/30 02:03:27;;;;;;;11.10;9.77;;;6.60;1.00;;;;;;5077268;28;20721;-56
2022/04/30 02:05:59;;;;;;;19.67;10.47;;;6.60;1.00;;;;;;5075927;28;20468;-58
2022/04/30 02:08:27;;;;;;;13.00;10.40;;;6.50;1.00;;;;;;5080108;28;20457;-58
2022/04/30 02:11:01;;;;;;;11.90;10.00;;;6.50;1.00;;;;;;5080311;28;20552;-59
2022/04/30 02:13:34;;;;;;;13.33;9.13;;;6.40;1.00;;;;;;5080471;28;20510;-58
2022/04/30 02:16:05;;;;;;;10.53;9.43;;;6.40;1.00;;;;;;5080143;28;20496;-58
2022/04/30 02:18:36;;;;;;;12.43;10.00;;;6.30;1.00;;;;;;5080750;28;20485;-57
2022/04/30 02:21:08;;;;;;;11.20;10.00;;;6.40;1.00;;;;;;5080431;28;20497;-57
2022/04/30 02:23:46;;;;;;;15.37;11.40;;;6.40;1.00;;;;;;5081043;28;20475;-57
2022/04/30 02:26:16;;;;;;;12.40;9.37;;;6.30;1.00;;;;;;5079875;28;20468;-58
2022/04/30 02:28:52;;;;;;;11.50;10.00;;;6.20;1.00;;;;;;5080510;28;20753;-56
2022/04/30 02:31:26;;;;;;;14.20;10.70;;;6.20;1.00;;;;;;5080199;28;20511;-58
2022/04/30 02:33:57;;;;;;;11.37;10.23;;;6.20;1.00;;;;;;5079949;28;20591;-58
2022/04/30 02:36:27;;;;;;;12.90;10.70;;;6.20;1.00;;;;;;5079995;28;20910;-57
2022/04/30 02:38:55;;;;;;;14.63;11.30;;;6.10;1.00;;;;;;5079786;28;20514;-58
2022/04/30 02:41:22;;;;;;;12.10;10.40;;;6.10;1.00;;;;;;5079805;28;20467;-58
2022/04/30 02:43:54;;;;;;;13.00;10.80;;;6.00;1.00;;;;;;5079795;28;20463;-58
2022/04/30 02:46:22;;;;;;;15.27;11.10;;;6.10;1.00;;;;;;5079984;28;20453;-57
2022/04/30 02:48:52;;;;;;;12.70;10.30;;;6.00;1.00;;;;;;5080341;28;20497;-58
2022/04/30 02:51:22;;;;;;;15.60;11.83;;;6.00;1.00;;;;;;5080209;28;20486;-55
2022/04/30 02:53:53;;;;;;;13.30;10.43;;;6.00;1.00;;;;;;5079203;28;20488;-58
2022/04/30 02:56:20;;;;;;;15.13;11.60;;;5.90;1.00;;;;;;5079679;28;20758;-58
2022/04/30 03:01:39;;;;;;;14.17;10.73;;;5.80;1.00;;;;;;5079885;28;20442;-58
2022/04/30 03:04:06;;;;;;;17.57;12.40;;;5.80;1.00;;;;;;5079569;28;20499;-57
2022/04/30 03:06:38;;;;;;;13.30;11.90;;;5.90;1.00;;;;;;5079507;28;20461;-57
2022/04/30 03:09:08;;;;;;;14.93;11.90;;;5.80;1.00;;;;;;5065018;28;20511;-58
2022/04/30 03:11:36;;;;;;;14.67;9.97;;;5.70;1.00;;;;;;5079097;28;20467;-58
2022/04/30 03:14:06;;;;;;;15.23;11.70;;;5.70;1.00;;;;;;5079194;28;20953;-58
2022/04/30 03:22:06;;;;;;;13.80;11.00;;;5.80;1.00;;;;;;5078750;28;20490;-55
2022/04/30 03:24:36;;;;;;;12.40;9.60;;;5.80;1.00;;;;;;5079447;28;20969;-58
2022/04/30 03:27:09;;;;;;;11.77;9.57;;;5.90;1.00;;;;;;5079746;28;20508;-58
2022/04/30 03:29:37;;;;;;;12.67;10.20;;;5.90;1.00;;;;;;5078512;28;20503;-57
2022/04/30 03:32:08;;;;;;;11.80;9.70;;;5.90;1.00;;;;;;5079421;28;20507;-58
2022/04/30 03:34:38;;;;;;;13.50;9.60;;;5.80;1.00;;;;;;5079202;28;20823;-58
2022/04/30 03:37:05;;;;;;;14.93;9.80;;;5.90;1.00;;;;;;5079298;28;20469;-58
2022/04/30 03:39:36;;;;;;;13.53;9.70;;;5.90;1.00;;;;;;5078572;28;20504;-59
2022/04/30 03:42:06;;;;;;;11.07;9.40;;;5.90;1.00;;;;;;5079099;28;20881;-59
2022/04/30 03:44:33;;;;;;;14.30;10.17;;;5.90;1.00;;;;;;5078697;28;20464;-59
2022/04/30 03:47:17;;;;;;;14.33;10.27;;;5.80;1.00;;;;;;5079338;28;20462;-59
2022/04/30 03:49:44;;;;;;;10.47;8.93;;;5.90;1.00;;;;;;5078557;28;20459;-59
2022/04/30 03:52:19;;;;;;;14.70;10.47;;;6.00;1.00;;;;;;5079189;28;20496;-59
2022/04/30 03:54:46;;;;;;;11.97;9.17;;;5.90;1.00;;;;;;5078680;28;20492;-59
2022/04/30 03:57:16;;;;;;;12.37;9.83;;;5.90;1.00;;;;;;5078969;28;20819;-57
2022/04/30 03:59:46;;;;;;;12.70;8.87;;;5.90;1.00;;;;;;5078393;28;20489;-58
2022/04/30 04:02:14;;;;;;;11.80;10.53;;;6.00;1.00;;;;;;5078383;28;20802;-58
2022/04/30 04:04:41;;;;;;;14.37;11.00;;;6.00;1.00;;;;;;5078198;28;20464;-57
2022/04/30 04:07:08;;;;;;;11.17;9.07;;;6.00;1.00;;;;;;5078747;28;20483;-58
2022/04/30 04:09:39;;;;;;;13.90;9.80;;;6.00;1.00;;;;;;5078612;28;20511;-58
2022/04/30 04:12:10;;;;;;;15.30;9.27;;;6.10;1.00;;;;;;5078193;28;20596;-59
2022/04/30 04:17:39;;;;;;;21.73;12.57;;;6.20;1.00;;;;;;5059476;28;20425;-59
2022/04/30 04:20:17;;;;;;;16.40;10.30;;;6.10;1.00;;;;;;5078066;28;20814;-59
2022/04/30 04:22:45;;;;;;;14.27;9.57;;;6.10;1.00;;;;;;5078402;28;20495;-59
2022/04/30 04:28:03;;;;;;;15.47;9.60;;;6.00;1.00;;;;;;5077685;28;20435;-59
2022/04/30 04:30:31;;;;;;;16.50;9.73;;;6.10;1.00;;;;;;5076606;28;20508;-59
2022/04/30 04:33:02;;;;;;;12.60;9.40;;;6.10;1.00;;;;;;5078179;28;20558;-59
2022/04/30 04:35:31;;;;;;;14.87;10.07;;;6.00;1.00;;;;;;5078112;28;20907;-59
2022/04/30 04:37:59;;;;;;;11.10;9.10;;;6.10;1.00;;;;;;5077686;28;20461;-59
2022/04/30 04:40:26;;;;;;;11.13;10.00;;;6.20;1.00;;;;;;5077782;28;20471;-59
2022/04/30 04:42:56;;;;;;;13.47;9.67;;;6.10;1.00;;;;;;5077169;28;20491;-57
2022/04/30 04:45:26;;;;;;;14.33;10.73;;;6.20;1.00;;;;;;5077609;28;20493;-58
2022/04/30 04:47:57;;;;;;;13.53;10.20;;;6.30;1.00;;;;;;5077558;28;20977;-58
2022/04/30 04:50:27;;;;;;;12.60;11.00;;;6.30;1.00;;;;;;5077799;28;20959;-57
2022/04/30 04:52:57;;;;;;;17.70;10.50;;;6.20;1.00;;;;;;5076998;28;20920;-58
2022/04/30 04:55:24;;;;;;;18.73;11.27;;;6.30;1.00;;;;;;5077889;28;20898;-57
2022/04/30 04:57:57;;;;;;;13.83;12.03;;;6.30;1.00;;;;;;5076692;28;20461;-55
2022/04/30 05:00:27;;;;;;;15.63;10.20;;;6.30;1.00;;;;;;5076985;28;20496;-57
2022/04/30 05:03:03;;;;;;;12.10;10.80;;;6.40;1.00;;;;;;5076877;28;20551;-57
2022/04/30 05:05:44;;;;;;;14.43;9.97;;;6.50;1.00;;;;;;5076266;28;20461;-58
2022/04/30 05:08:11;;;;;;;12.40;10.40;;;6.50;1.00;;;;;;5074622;28;20595;-57
2022/04/30 05:10:40;;;;;;;14.83;10.77;;;6.50;1.00;;;;;;5075315;28;20546;-58
2022/04/30 05:13:09;;;;;;;11.40;10.20;;;6.60;1.00;;;;;;5075920;28;20536;-57
2022/04/30 05:15:41;;;;;;;15.00;10.20;;;6.60;1.00;;;;;;5077254;28;20519;-57
2022/04/30 05:18:08;;;;;;;14.30;10.67;;;6.70;1.00;;;;;;5077654;28;20510;-58
2022/04/30 05:20:38;;;;;;;16.23;11.60;;;6.70;1.00;;;;;;5077381;28;20523;-57
2022/04/30 05:23:06;;;;;;;14.60;10.10;;;6.70;1.00;;;;;;5076337;28;20886;-58
2022/04/30 05:25:40;;;;;;;14.37;10.00;;;6.70;1.00;;;;;;5076429;28;20499;-57
2022/04/30 05:28:10;;;;;;;15.00;9.60;;;6.70;1.00;;;;;;5075841;28;20529;-57
2022/04/30 05:30:39;;;;;;;15.73;11.23;;;6.80;1.00;;;;;;5076448;28;20465;-58
2022/04/30 05:33:09;;;;;;;17.33;11.73;;;6.60;1.00;;;;;;5076007;28;20497;-56
2022/04/30 05:35:39;;;;;;;12.63;10.43;;;6.70;1.00;;;;;;5075986;28;20465;-58
2022/04/30 05:38:10;;;;;;;10.70;9.30;;;6.70;1.00;;;;;;5075824;28;20507;-57
2022/04/30 05:40:38;;;;;;;13.13;10.50;;;6.60;1.00;;;;;;5076859;28;20548;-58
2022/04/30 05:43:07;;;;;;;12.33;9.73;;;6.70;1.00;;;;;;5077126;28;20525;-58
2022/04/30 05:45:36;;;;;;;12.07;9.50;;;6.90;1.00;;;;;;5075805;28;20836;-58
2022/04/30 05:48:03;;;;;;;14.73;9.13;;;7.00;1.00;;;;;;5076814;28;20465;-55
2022/04/30 05:50:36;;;;;;;12.40;9.10;;;7.00;1.00;;;;;;5076128;28;20457;-57
2022/04/30 05:53:13;;;;;;;12.50;10.13;;;6.90;1.00;;;;;;5077093;28;20761;-58
2022/04/30 05:55:42;;;;;;;15.70;9.80;;;7.00;1.00;;;;;;5076752;28;20969;-55
2022/04/30 05:58:09;;;;;;;15.33;10.07;;;6.80;1.00;;;;;;5076353;28;20468;-56
2022/04/30 06:00:36;;;;;;;10.47;9.20;;;6.90;1.00;;;;;;5075962;28;20497;-58
2022/04/30 06:03:03;;;;;;;18.47;10.10;;;7.00;1.00;;;;;;5076790;28;20760;-58
2022/04/30 06:05:30;;;;;;;13.63;10.60;;;7.10;1.00;;;;;;5076934;28;20468;-58
2022/04/30 06:08:00;;;;;;;11.93;9.27;;;7.10;1.00;;;;;;5076031;28;20457;-58
2022/04/30 06:10:29;;;;;;;13.63;11.17;;;7.20;1.00;;;;;;5076842;28;20497;-58
2022/04/30 06:12:58;;;;;;;11.47;9.73;;;7.30;1.00;;;;;;5076234;28;20543;-57
2022/04/30 06:15:29;;;;;;;11.27;9.63;;;7.20;1.00;;;;;;5076847;28;20599;-58
2022/04/30 06:17:56;;;;;;;12.17;10.17;;;7.10;1.00;;;;;;5076898;28;20556;-58
2022/04/30 06:20:23;;;;;;;12.80;10.03;;;7.30;1.00;;;;;;5076508;28;20920;-57
2022/04/30 06:22:50;;;;;;;13.43;10.37;;;7.50;1.00;;;;;;5076764;28;20465;-58
2022/04/30 06:25:19;;;;;;;10.60;9.20;;;7.50;1.00;;;;;;5076982;28;20493;-58
2022/04/30 06:27:48;;;;;;;11.70;9.17;;;7.60;1.00;;;;;;5076470;28;20756;-58
2022/04/30 06:30:15;;;;;;;12.77;9.77;;;7.80;1.00;;;;;;5076441;28;20461;-57
2022/04/30 06:32:47;;;;;;;12.60;10.30;;;7.90;1.00;;;;;;5076539;28;20458;-57
2022/04/30 06:35:14;;;;;;;14.83;9.30;;;7.90;1.00;;;;;;5076700;28;20493;-57
2022/04/30 06:37:43;;;;;;;12.27;9.90;;;7.80;99.90;;;;;;5076243;28;20519;-58
2022/04/30 06:40:12;;;;;;;10.43;9.33;;;7.70;1.00;;;;;;5076354;28;20504;-58
2022/04/30 06:42:55;;;;;;;11.90;10.57;;;7.80;1.00;;;;;;5076513;28;20956;-58
2022/04/30 06:45:30;;;;;;;15.40;10.67;;;7.90;1.00;;;;;;5076607;28;20462;-58
2022/04/30 06:47:58;;;;;;;10.17;9.10;;;7.90;99.90;;;;;;5076143;28;20460;-58
2022/04/30 06:50:32;;;;;;;12.17;10.67;;;8.10;99.90;;;;;;5076687;28;20472;-57
2022/04/30 06:58:40;;;;;;;14.77;11.23;;;8.80;99.90;;;;;;5059623;28;20509;-58
2022/04/30 07:01:38;;;;;;;14.37;11.40;;;8.90;99.90;;;;;;5059813;28;20462;-58
2022/04/30 07:04:06;;;;;;;12.63;10.83;;;8.70;99.90;;;;;;5059749;28;20554;-58
2022/04/30 07:06:41;;;;;;;12.47;10.33;;;8.60;99.90;;;;;;5058858;28;20458;-58
2022/04/30 07:09:12;;;;;;;13.97;11.20;;;8.80;99.90;;;;;;5059786;28;20458;-58
2022/04/30 07:11:48;;;;;;;13.57;11.70;;;8.80;99.90;;;;;;5073782;28;20905;-58
2022/04/30 07:14:15;;;;;;;13.00;10.70;;;9.20;99.90;;;;;;5079463;28;20496;-59
2022/04/30 07:16:43;;;;;;;17.33;11.20;;;9.70;99.90;;;;;;5079588;28;20462;-59
2022/04/30 07:19:13;;;;;;;11.17;10.07;;;10.20;99.90;;;;;;5079516;28;20464;-59
2022/04/30 07:21:43;;;;;;;11.60;10.50;;;11.00;99.90;;;;;;5078710;28;20497;-59
2022/04/30 07:24:12;;;;;;;12.10;10.23;;;10.90;99.90;;;;;;5079622;28;20518;-57
2022/04/30 07:26:47;;;;;;;12.37;10.80;;;10.80;99.90;;;;;;5078794;28;20487;-59
2022/04/30 07:29:14;;;;;;;11.00;9.90;;;11.30;99.90;;;;;;5079578;28;20903;-59
2022/04/30 07:31:45;;;;;;;10.90;10.00;;;11.50;99.90;;;;;;5079629;28;20902;-59
2022/04/30 07:34:15;;;;;;;15.77;11.70;;;11.90;99.90;;;;;;5078810;28;20536;-60
2022/04/30 07:36:42;;;;;;;12.60;11.30;;;12.00;99.90;;;;;;5079825;28;20469;-59
2022/04/30 07:39:11;;;;;;;13.60;9.63;;;11.80;99.90;;;;;;5079733;28;20461;-59
2022/04/30 07:41:40;;;;;;;11.57;9.73;;;11.30;99.90;;;;;;5079341;28;20468;-59
2022/04/30 07:44:12;;;;;;;13.00;9.80;;;11.30;99.90;;;;;;5079100;28;20461;-59
2022/04/30 07:46:42;;;;;;;13.50;10.63;;;11.50;99.90;;;;;;5079116;28;20461;-59
2022/04/30 07:49:09;;;;;;;12.00;10.80;;;11.90;99.90;;;;;;5079090;28;20515;-59
2022/04/30 07:51:52;;;;;;;10.93;9.93;;;12.40;99.90;;;;;;5079203;28;20565;-60
2022/04/30 07:54:25;;;;;;;12.10;10.80;;;12.60;99.90;;;;;;5079093;28;20493;-59
2022/04/30 07:56:53;;;;;;;8.93;8.17;;;12.50;99.90;;;;;;5079244;28;20830;-59
2022/04/30 07:59:24;;;;;;;12.43;9.00;;;12.30;99.90;;;;;;5078982;28;20461;-59
2022/04/30 08:01:57;;;;;;;9.27;8.40;;;12.40;99.90;;;;;;5078711;28;20556;-58
2022/04/30 08:04:24;;;;;;;10.33;8.57;;;12.70;99.90;;;;;;5078619;28;20511;-59
2022/04/30 08:06:54;;;;;;;9.87;8.70;;;12.40;99.90;;;;;;5078635;28;20517;-59
2022/04/30 08:09:21;;;;;;;10.97;9.80;;;12.40;99.90;;;;;;5078849;28;20807;-59
2022/04/30 08:11:49;;;;;;;8.70;7.90;;;12.60;99.90;;;;;;5078248;28;20504;-58
2022/04/30 08:14:19;;;;;;;9.67;8.63;;;13.10;99.90;;;;;;5078253;28;20489;-59
2022/04/30 08:16:46;;;;;;;10.33;8.57;;;13.50;99.90;;;;;;5078467;28;20461;-59
2022/04/30 08:19:16;;;;;;;8.23;7.53;;;13.70;99.90;;;;;;5078591;28;20493;-60
2022/04/30 08:21:44;;;;;;;8.43;7.63;;;13.60;99.90;;;;;;5078589;28;20493;-60
2022/04/30 08:24:14;;;;;;;12.87;7.93;;;13.80;99.90;;;;;;5077287;28;20464;-60
2022/04/30 08:26:46;;;;;;;8.57;7.87;;;14.20;99.90;;;;;;5076603;28;20520;-59
2022/04/30 08:29:16;;;;;;;11.00;10.20;;;14.50;99.90;;;;;;5078466;28;20566;-60
2022/04/30 08:31:45;;;;;;;10.40;9.40;;;13.90;99.90;;;;;;5077566;28;20586;-60
2022/04/30 08:34:19;;;;;;;11.50;10.50;;;14.20;99.90;;;;;;5077125;28;20489;-61
2022/04/30 08:36:49;;;;;;;11.33;10.33;;;14.80;99.90;;;;;;5078252;28;20503;-61
2022/04/30 08:39:23;;;;;;;11.00;10.20;;;14.70;99.90;;;;;;5077653;28;20468;-61
2022/04/30 08:41:53;;;;;;;10.30;9.53;;;14.80;99.90;;;;;;5077829;28;20461;-60
2022/04/30 08:44:20;;;;;;;10.23;9.33;;;15.10;99.90;;;;;;5076694;28;20454;-61
2022/04/30 08:46:47;;;;;;;10.63;9.73;;;14.30;99.90;;;;;;5076971;28;20461;-60
2022/04/30 08:49:22;;;;;;;11.10;9.63;;;13.30;99.90;;;;;;5077671;28;20813;-60
2022/04/30 08:51:59;;;;;;;11.10;10.40;;;12.40;99.90;;;;;;5077200;28;20908;-60
2022/04/30 08:54:26;;;;;;;10.43;9.40;;;11.90;99.90;;;;;;5076939;28;20910;-60
2022/04/30 08:56:57;;;;;;;10.97;9.90;;;11.40;99.90;;;;;;5090116;28;20468;-59
2022/04/30 08:59:25;;;;;;;9.80;9.00;;;11.00;99.90;;;;;;5084363;28;20487;-59
2022/04/30 09:02:02;;;;;;;8.80;8.10;;;10.70;99.90;;;;;;5077814;28;20497;-60
2022/04/30 09:04:47;;;;;;;9.27;7.90;;;10.20;99.90;;;;;;5077211;28;20453;-60
2022/04/30 09:07:30;;;;;;;9.53;8.63;;;11.40;99.90;;;;;;5077911;28;20534;-60
2022/04/30 09:10:03;;;;;;;8.37;7.60;;;12.90;99.90;;;;;;5076957;28;20464;-61
2022/04/30 09:12:31;;;;;;;8.17;7.43;;;13.20;99.90;;;;;;5076705;28;20851;-61
2022/04/30 09:14:59;;;;;;;8.97;7.50;;;13.60;99.90;;;;;;5073577;28;20497;-60
2022/04/30 09:17:36;;;;;;;8.50;7.13;;;13.80;99.90;;;;;;5075891;28;20495;-61
2022/04/30 09:20:22;;;;;;;8.33;7.37;;;14.60;99.90;;;;;;5076110;28;20468;-60
2022/04/30 09:22:51;;;;;;;8.03;7.30;;;14.80;99.90;;;;;;5077656;28;20511;-61
2022/04/30 09:25:19;;;;;;;10.10;7.93;;;13.40;99.90;;;;;;5076816;28;20465;-60
2022/04/30 09:27:55;;;;;;;8.20;7.23;;;14.10;99.90;;;;;;5076397;28;20817;-62
2022/04/30 09:30:29;;;;;;;7.50;6.80;;;13.70;99.90;;;;;;5077915;28;20453;-61
2022/04/30 09:33:00;;;;;;;8.63;7.33;;;13.80;99.90;;;;;;5075463;28;20465;-61
2022/04/30 09:38:45;;;;;;;7.40;6.70;;;15.00;99.90;;;;;;5065234;28;20859;-62
2022/04/30 09:41:12;;;;;;;7.60;6.90;;;15.00;99.90;;;;;;5069858;28;20493;-61
2022/04/30 09:43:39;;;;;;;7.20;6.50;;;15.50;99.90;;;;;;5057423;28;20862;-61
2022/04/30 09:46:10;;;;;;;7.43;6.60;;;16.00;99.90;;;;;;5068725;28;20469;-61
2022/04/30 09:54:28;;;;;;;7.13;5.33;;;16.00;99.90;;;;;;5076148;28;20448;-60
2022/04/30 09:56:57;;;;;;;7.20;6.60;;;14.60;99.90;;;;;;5074381;28;20484;-60
2022/04/30 09:59:31;;;;;;;7.20;6.60;;;16.10;99.90;;;;;;5075223;28;20921;-60
2022/04/30 10:02:04;;;;;;;7.83;7.03;;;17.10;99.90;;;;;;5079126;28;20499;-60
2022/04/30 10:04:34;;;;;;;8.97;8.10;;;17.50;99.90;;;;;;5075852;28;20500;-60
2022/04/30 10:07:06;;;;;;;7.53;6.93;;;18.00;99.90;;;;;;5074316;28;20846;-61
2022/04/30 10:09:40;;;;;;;7.50;6.80;;;18.60;99.90;;;;;;5075758;28;20824;-60
2022/04/30 10:12:15;;;;;;;8.63;6.40;;;17.70;99.90;;;;;;5075468;28;20575;-61
2022/04/30 10:15:04;;;;;;;6.87;6.37;;;17.10;99.90;;;;;;5051886;28;21167;-60
2022/04/30 10:17:34;;;;;;;7.43;6.73;;;14.70;99.90;;;;;;5075654;28;20468;-60
2022/04/30 10:20:05;;;;;;;8.77;7.00;;;14.20;99.90;;;;;;5076110;28;20461;-60
2022/04/30 10:22:32;;;;;;;10.03;7.80;;;13.00;99.90;;;;;;5074299;28;20556;-59
2022/04/30 10:25:04;;;;;;;8.57;7.20;;;12.70;99.90;;;;;;5076484;28;20907;-61
2022/04/30 10:27:49;;;;;;;8.07;7.37;;;13.00;99.90;;;;;;5075280;28;20595;-60
2022/04/30 10:30:23;;;;;;;6.83;6.23;;;13.60;99.90;;;;;;5060374;28;20462;-60
2022/04/30 10:32:59;;;;;;;6.50;5.90;;;13.90;99.90;;;;;;5072603;28;20474;-59
2022/04/30 10:35:33;;;;;;;7.07;5.43;;;14.30;99.90;;;;;;5079318;28;20589;-60
2022/04/30 10:38:18;;;;;;;6.73;5.67;;;14.60;99.90;;;;;;5078212;28;20572;-61
2022/04/30 10:40:55;;;;;;;6.57;5.40;;;15.30;99.90;;;;;;5060553;28;20782;-61
2022/04/30 10:43:34;;;;;;;6.37;5.10;;;15.80;99.90;;;;;;5070810;28;20838;-60
2022/04/30 10:46:02;;;;;;;5.27;4.87;;;15.70;99.90;;;;;;5079317;28;20510;-60
2022/04/30 10:48:32;;;;;;;6.20;5.70;;;15.70;99.90;;;;;;5077717;28;20901;-60
2022/04/30 10:51:05;;;;;;;5.87;5.27;;;16.90;99.90;;;;;;5078112;28;20493;-61
2022/04/30 10:53:33;;;;;;;5.40;4.90;;;17.90;99.90;;;;;;5077904;28;20530;-60
2022/04/30 10:56:05;;;;;;;4.80;4.40;;;18.00;99.90;;;;;;5079571;28;20487;-60
2022/04/30 10:58:34;;;;;;;5.70;5.20;;;18.20;99.90;;;;;;5080053;28;20797;-60
2022/04/30 11:01:15;;;;;;;5.90;5.27;;;18.40;99.90;;;;;;5079458;28;20519;-61
2022/04/30 11:03:43;;;;;;;4.77;4.47;;;17.20;99.90;;;;;;5080154;28;20468;-60
2022/04/30 11:06:18;;;;;;;6.20;5.60;;;15.40;99.90;;;;;;5079300;28;20453;-58
2022/04/30 11:08:45;;;;;;;5.43;4.97;;;15.60;99.90;;;;;;5074714;28;20461;-59
2022/04/30 11:11:21;;;;;;;5.50;5.10;;;15.30;99.90;;;;;;5078478;28;20497;-61
2022/04/30 11:13:56;;;;;;;5.80;5.30;;;15.90;99.90;;;;;;5079165;28;20583;-60
2022/04/30 11:16:29;;;;;;;5.90;5.30;;;17.70;99.90;;;;;;5059455;28;20848;-60
2022/04/30 11:19:06;;;;;;;6.10;5.37;;;16.20;99.90;;;;;;5068924;28;20453;-59
2022/04/30 11:21:38;;;;;;;8.80;5.97;;;15.80;99.90;;;;;;5071249;28;20479;-60
2022/04/30 11:24:09;;;;;;;6.97;6.27;;;16.20;99.90;;;;;;5075766;28;20564;-59
2022/04/30 11:26:47;;;;;;;6.47;5.77;;;16.50;99.90;;;;;;5076499;28;20469;-61
2022/04/30 11:29:15;;;;;;;7.03;5.20;;;16.20;99.90;;;;;;5079617;28;20471;-60
2022/04/30 11:31:50;;;;;;;5.77;5.27;;;15.80;99.90;;;;;;5078641;28;20462;-60
2022/04/30 11:34:17;;;;;;;6.30;5.70;;;16.20;99.90;;;;;;5075349;28;20568;-61
2022/04/30 11:36:50;;;;;;;6.47;5.83;;;17.40;99.90;;;;;;5070083;28;20528;-61
2022/04/30 11:39:29;;;;;;;5.87;5.27;;;17.50;99.90;;;;;;5073321;28;20808;-60
2022/04/30 11:42:01;;;;;;;5.70;5.10;;;18.60;99.90;;;;;;5078098;28;20461;-60
2022/04/30 11:44:29;;;;;;;7.90;5.70;;;19.20;99.90;;;;;;5077620;28;20540;-61
2022/04/30 11:47:04;;;;;;;6.03;5.43;;;18.10;99.90;;;;;;5077695;28;20480;-61
2022/04/30 11:49:34;;;;;;;7.20;6.50;;;19.00;99.90;;;;;;5076056;28;20481;-59
2022/04/30 11:52:04;;;;;;;7.13;6.50;;;19.20;99.90;;;;;;5078560;28;20484;-60
2022/04/30 11:54:31;;;;;;;6.60;6.10;;;19.60;99.90;;;;;;5078699;28;20552;-60
2022/04/30 11:57:05;;;;;;;5.67;5.17;;;20.10;99.90;;;;;;5078380;28;20488;-60
2022/04/30 11:59:34;;;;;;;6.07;5.47;;;18.40;99.90;;;;;;5065195;28;20528;-60
2022/04/30 12:02:08;;;;;;;5.30;4.80;;;15.70;99.90;;;;;;5060224;28;20465;-59
2022/04/30 12:04:36;;;;;;;6.57;5.97;;;15.50;99.90;;;;;;5079243;28;20886;-60
2022/04/30 12:07:08;;;;;;;5.53;5.03;;;16.60;99.90;;;;;;5079102;28;20488;-60
2022/04/30 12:09:39;;;;;;;6.40;5.60;;;17.90;99.90;;;;;;5076832;28;20474;-60
2022/04/30 12:12:17;;;;;;;6.07;5.10;;;18.30;99.90;;;;;;5078699;28;20492;-60
2022/04/30 12:14:56;;;;;;;6.27;5.77;;;18.50;99.90;;;;;;5077926;28;20504;-60
2022/04/30 12:17:31;;;;;;;7.27;5.80;;;17.40;99.90;;;;;;5078678;28;20511;-61
2022/04/30 12:25:43;;;;;;;5.83;5.33;;;18.00;99.90;;;;;;5033513;28;20875;-60
2022/04/30 12:28:15;;;;;;;6.13;5.63;;;16.40;99.90;;;;;;5073661;28;20505;-60
2022/04/30 12:30:56;;;;;;;5.00;4.60;;;15.90;99.90;;;;;;5077539;28;20454;-60
2022/04/30 12:33:31;;;;;;;6.27;4.80;;;16.70;99.90;;;;;;5075801;28;20457;-61
2022/04/30 12:35:59;;;;;;;6.10;4.97;;;16.90;99.90;;;;;;5076105;28;20488;-60
2022/04/30 12:38:31;;;;;;;6.17;5.67;;;17.40;99.90;;;;;;5073706;28;20498;-60
2022/04/30 12:41:02;;;;;;;5.47;4.97;;;16.80;99.90;;;;;;5074001;28;20568;-61
2022/04/30 12:43:36;;;;;;;9.07;5.77;;;16.30;99.90;;;;;;5077202;28;20904;-60
2022/04/30 12:46:04;;;;;;;6.70;6.00;;;16.20;99.90;;;;;;5078128;28;20468;-59
2022/04/30 12:48:39;;;;;;;6.20;5.70;;;15.20;99.90;;;;;;5075975;28;20569;-60
2022/04/30 12:51:07;;;;;;;6.43;5.83;;;16.10;99.90;;;;;;5074406;28;20912;-60
2022/04/30 12:53:34;;;;;;;5.63;5.23;;;17.30;99.90;;;;;;5075947;28;20461;-60
2022/04/30 12:56:12;;;;;;;6.07;5.50;;;18.60;99.90;;;;;;5076780;28;20524;-61
2022/04/30 12:58:40;;;;;;;5.77;5.20;;;18.40;99.90;;;;;;5075461;28;20767;-61
2022/04/30 13:01:10;;;;;;;5.90;5.13;;;18.20;99.90;;;;;;5076012;28;20465;-60
2022/04/30 13:03:37;;;;;;;6.87;5.60;;;16.60;99.90;;;;;;5076646;28;20552;-61
2022/04/30 13:06:18;;;;;;;10.13;6.10;;;15.70;99.90;;;;;;5076202;28;20486;-60
2022/04/30 13:14:19;;;;;;;7.67;5.57;;;14.70;99.90;;;;;;5071573;28;20824;-60
2022/04/30 13:16:48;;;;;;;7.10;6.40;;;15.70;99.90;;;;;;5076780;28;20500;-60
2022/04/30 13:19:21;;;;;;;6.10;5.50;;;16.10;99.90;;;;;;5076644;28;20464;-60
2022/04/30 13:21:49;;;;;;;6.33;5.80;;;17.20;99.90;;;;;;5075655;28;20461;-61
2022/04/30 13:24:18;;;;;;;6.07;5.30;;;18.20;99.90;;;;;;5076238;28;20465;-59
2022/04/30 13:26:53;;;;;;;6.70;6.20;;;19.30;99.90;;;;;;5076587;28;20481;-61
2022/04/30 13:29:23;;;;;;;5.80;5.30;;;19.90;99.90;;;;;;5076237;28;20587;-61
2022/04/30 13:31:53;;;;;;;5.80;5.40;;;19.80;99.90;;;;;;5076118;28;20540;-61
2022/04/30 13:34:23;;;;;;;7.10;6.40;;;17.20;99.90;;;;;;5077135;28;20587;-60
2022/04/30 13:36:55;;;;;;;6.77;6.30;;;16.20;99.90;;;;;;5076141;28;20516;-61
2022/04/30 13:39:26;;;;;;;6.77;6.10;;;16.20;99.90;;;;;;5076542;28;20487;-61
2022/04/30 13:41:53;;;;;;;8.10;6.37;;;15.40;99.90;;;;;;5075462;28;20465;-60
2022/04/30 13:44:24;;;;;;;7.07;6.30;;;15.00;99.90;;;;;;5075598;28;20497;-60
2022/04/30 13:46:52;;;;;;;9.50;6.10;;;15.50;99.90;;;;;;5076931;28;20515;-60
2022/04/30 13:49:22;;;;;;;6.10;5.50;;;16.60;99.90;;;;;;5077186;28;20905;-61
2022/04/30 13:51:54;;;;;;;8.40;6.50;;;17.20;99.90;;;;;;5076350;28;20504;-61